sensor_id;sensor_type;location;lat;lon;timestamp;temperature;humidity
12682;DHT22;6405;59.208;18.216;2023-03-03T00:01:27;3.70;99.90
12682;DHT22;6405;59.208;18.216;2023-03-03T00:03:53;3.80;99.90
12682;DHT22;6405;59.208;18.216;2023-03-03T00:06:19;3.80;99.90
12682;DHT22;6405;59.208;18.216;2023-03-03T00:08:45;3.80;99.90
12682;DHT22;6405;59.208;18.216;2023-03-03T00:11:11;3.70;99.90
12682;DHT22;6405;59.208;18.216;2023-03-03T00:13:46;3.70;99.90
12682;DHT22;6405;59.208;18.216;2023-03-03T00:18:58;3.70;99.90
12682;DHT22;6405;59.208;18.216;2023-03-03T00:21:34;3.70;99.90
12682;DHT22;6405;59.208;18.216;2023-03-03T00:24:13;3.80;99.90
12682;DHT22;6405;59.208;18.216;2023-03-03T00:29:28;3.70;99.90
12682;DHT22;6405;59.208;18.216;2023-03-03T00:34:37;3.60;99.90
12682;DHT22;6405;59.208;18.216;2023-03-03T00:37:22;3.50;99.90
12682;DHT22;6405;59.208;18.216;2023-03-03T00:39:49;3.50;99.90
12682;DHT22;6405;59.208;18.216;2023-03-03T00:42:17;3.50;99.90
12682;DHT22;6405;59.208;18.216;2023-03-03T00:44:47;3.40;99.90
12682;DHT22;6405;59.208;18.216;2023-03-03T00:49:38;3.30;99.90
12682;DHT22;6405;59.208;18.216;2023-03-03T00:52:15;3.30;99.90
12682;DHT22;6405;59.208;18.216;2023-03-03T00:54:41;3.30;99.90
12682;DHT22;6405;59.208;18.216;2023-03-03T00:57:06;3.20;99.90
12682;DHT22;6405;59.208;18.216;2023-03-03T00:59:32;3.20;99.90
12682;DHT22;6405;59.208;18.216;2023-03-03T01:01:58;3.20;99.90
12682;DHT22;6405;59.208;18.216;2023-03-03T01:04:23;3.20;99.90
12682;DHT22;6405;59.208;18.216;2023-03-03T01:06:49;3.20;99.90
12682;DHT22;6405;59.208;18.216;2023-03-03T01:09:14;3.20;99.90
12682;DHT22;6405;59.208;18.216;2023-03-03T01:11:40;3.10;99.90
12682;DHT22;6405;59.208;18.216;2023-03-03T01:14:06;3.20;99.90
12682;DHT22;6405;59.208;18.216;2023-03-03T01:16:33;3.30;99.90
12682;DHT22;6405;59.208;18.216;2023-03-03T01:18:58;3.30;99.90
12682;DHT22;6405;59.208;18.216;2023-03-03T01:21:24;3.20;99.90
12682;DHT22;6405;59.208;18.216;2023-03-03T01:23:50;3.30;99.90
12682;DHT22;6405;59.208;18.216;2023-03-03T01:26:15;3.30;99.90
12682;DHT22;6405;59.208;18.216;2023-03-03T01:28:41;3.30;99.90
12682;DHT22;6405;59.208;18.216;2023-03-03T01:31:07;3.30;99.90
12682;DHT22;6405;59.208;18.216;2023-03-03T01:33:34;3.30;99.90
12682;DHT22;6405;59.208;18.216;2023-03-03T01:36:00;3.40;99.90
12682;DHT22;6405;59.208;18.216;2023-03-03T01:38:26;3.30;99.90
12682;DHT22;6405;59.208;18.216;2023-03-03T01:40:53;3.30;99.90
12682;DHT22;6405;59.208;18.216;2023-03-03T01:43:19;3.40;99.90
12682;DHT22;6405;59.208;18.216;2023-03-03T01:50:59;3.20;99.90
12682;DHT22;6405;59.208;18.216;2023-03-03T01:53:49;3.20;99.90
12682;DHT22;6405;59.208;18.216;2023-03-03T01:56:16;3.20;99.90
12682;DHT22;6405;59.208;18.216;2023-03-03T01:58:45;3.00;99.90
12682;DHT22;6405;59.208;18.216;2023-03-03T02:01:16;3.00;99.90
12682;DHT22;6405;59.208;18.216;2023-03-03T02:03:43;2.90;99.90
12682;DHT22;6405;59.208;18.216;2023-03-03T02:06:16;2.80;99.90
12682;DHT22;6405;59.208;18.216;2023-03-03T02:09:13;2.80;99.90
12682;DHT22;6405;59.208;18.216;2023-03-03T02:11:43;2.80;99.90
12682;DHT22;6405;59.208;18.216;2023-03-03T02:14:12;2.70;99.90
12682;DHT22;6405;59.208;18.216;2023-03-03T02:16:38;2.70;99.90
12682;DHT22;6405;59.208;18.216;2023-03-03T02:19:16;2.70;99.90
12682;DHT22;6405;59.208;18.216;2023-03-03T02:21:43;2.70;99.90
12682;DHT22;6405;59.208;18.216;2023-03-03T02:24:17;2.80;99.90
12682;DHT22;6405;59.208;18.216;2023-03-03T02:26:47;2.80;99.90
12682;DHT22;6405;59.208;18.216;2023-03-03T02:29:13;2.90;99.90
12682;DHT22;6405;59.208;18.216;2023-03-03T02:31:38;2.90;99.90
12682;DHT22;6405;59.208;18.216;2023-03-03T02:34:05;2.80;99.90
12682;DHT22;6405;59.208;18.216;2023-03-03T02:36:33;2.90;99.90
12682;DHT22;6405;59.208;18.216;2023-03-03T02:39:15;2.90;99.90
12682;DHT22;6405;59.208;18.216;2023-03-03T02:44:29;3.00;99.90
12682;DHT22;6405;59.208;18.216;2023-03-03T02:46:57;2.90;99.90
12682;DHT22;6405;59.208;18.216;2023-03-03T02:49:27;2.90;99.90
12682;DHT22;6405;59.208;18.216;2023-03-03T02:51:53;2.90;99.90
12682;DHT22;6405;59.208;18.216;2023-03-03T02:54:22;2.90;99.90
12682;DHT22;6405;59.208;18.216;2023-03-03T02:56:48;2.80;99.90
12682;DHT22;6405;59.208;18.216;2023-03-03T02:59:14;2.80;99.90
12682;DHT22;6405;59.208;18.216;2023-03-03T03:01:40;2.80;99.90
12682;DHT22;6405;59.208;18.216;2023-03-03T03:04:15;2.80;99.90
12682;DHT22;6405;59.208;18.216;2023-03-03T03:06:42;2.80;99.90
12682;DHT22;6405;59.208;18.216;2023-03-03T03:09:08;2.80;99.90
12682;DHT22;6405;59.208;18.216;2023-03-03T03:11:34;2.80;99.90
12682;DHT22;6405;59.208;18.216;2023-03-03T03:14:01;2.70;99.90
12682;DHT22;6405;59.208;18.216;2023-03-03T03:16:27;2.80;99.90
12682;DHT22;6405;59.208;18.216;2023-03-03T03:18:53;2.70;99.90
12682;DHT22;6405;59.208;18.216;2023-03-03T03:21:18;2.70;99.90
12682;DHT22;6405;59.208;18.216;2023-03-03T03:23:44;2.70;99.90
12682;DHT22;6405;59.208;18.216;2023-03-03T03:26:10;2.70;99.90
12682;DHT22;6405;59.208;18.216;2023-03-03T03:28:36;2.80;99.90
12682;DHT22;6405;59.208;18.216;2023-03-03T03:31:04;2.70;99.90
12682;DHT22;6405;59.208;18.216;2023-03-03T03:33:30;2.70;99.90
12682;DHT22;6405;59.208;18.216;2023-03-03T03:35:57;2.70;99.90
12682;DHT22;6405;59.208;18.216;2023-03-03T03:38:24;2.70;99.90
12682;DHT22;6405;59.208;18.216;2023-03-03T03:40:52;2.70;99.90
12682;DHT22;6405;59.208;18.216;2023-03-03T03:43:18;2.70;99.90
12682;DHT22;6405;59.208;18.216;2023-03-03T03:45:44;2.70;99.90
12682;DHT22;6405;59.208;18.216;2023-03-03T03:48:10;2.70;99.90
12682;DHT22;6405;59.208;18.216;2023-03-03T03:50:35;2.60;99.90
12682;DHT22;6405;59.208;18.216;2023-03-03T03:53:02;2.50;99.90
12682;DHT22;6405;59.208;18.216;2023-03-03T03:55:27;2.50;99.90
12682;DHT22;6405;59.208;18.216;2023-03-03T03:57:55;2.50;99.90
12682;DHT22;6405;59.208;18.216;2023-03-03T04:00:21;2.50;99.90
12682;DHT22;6405;59.208;18.216;2023-03-03T04:02:46;2.40;99.90
12682;DHT22;6405;59.208;18.216;2023-03-03T04:05:12;2.40;99.90
12682;DHT22;6405;59.208;18.216;2023-03-03T04:07:38;2.30;99.90
12682;DHT22;6405;59.208;18.216;2023-03-03T04:10:04;2.30;99.90
12682;DHT22;6405;59.208;18.216;2023-03-03T04:12:29;2.20;99.90
12682;DHT22;6405;59.208;18.216;2023-03-03T04:15:00;2.10;99.90
12682;DHT22;6405;59.208;18.216;2023-03-03T04:17:25;2.10;99.90
12682;DHT22;6405;59.208;18.216;2023-03-03T04:19:52;2.10;99.90
12682;DHT22;6405;59.208;18.216;2023-03-03T04:22:18;2.00;99.90
12682;DHT22;6405;59.208;18.216;2023-03-03T04:24:43;1.90;99.90
12682;DHT22;6405;59.208;18.216;2023-03-03T04:27:09;1.80;99.90
12682;DHT22;6405;59.208;18.216;2023-03-03T04:29:35;1.80;99.90
12682;DHT22;6405;59.208;18.216;2023-03-03T04:32:01;1.80;99.90
12682;DHT22;6405;59.208;18.216;2023-03-03T04:34:26;1.70;99.90
12682;DHT22;6405;59.208;18.216;2023-03-03T04:36:52;1.70;99.90
12682;DHT22;6405;59.208;18.216;2023-03-03T04:39:18;1.70;99.90
12682;DHT22;6405;59.208;18.216;2023-03-03T04:41:43;1.60;99.90
12682;DHT22;6405;59.208;18.216;2023-03-03T04:44:09;1.60;99.90
12682;DHT22;6405;59.208;18.216;2023-03-03T04:46:35;1.60;99.90
12682;DHT22;6405;59.208;18.216;2023-03-03T04:49:00;1.60;99.90
12682;DHT22;6405;59.208;18.216;2023-03-03T04:51:26;1.60;99.90
12682;DHT22;6405;59.208;18.216;2023-03-03T04:53:52;1.50;99.90
12682;DHT22;6405;59.208;18.216;2023-03-03T04:56:17;1.40;99.90
12682;DHT22;6405;59.208;18.216;2023-03-03T04:58:43;1.50;99.90
12682;DHT22;6405;59.208;18.216;2023-03-03T05:01:12;1.40;99.90
12682;DHT22;6405;59.208;18.216;2023-03-03T05:03:38;1.30;99.90
12682;DHT22;6405;59.208;18.216;2023-03-03T05:06:04;1.30;99.90
12682;DHT22;6405;59.208;18.216;2023-03-03T05:08:30;1.30;99.90
12682;DHT22;6405;59.208;18.216;2023-03-03T05:10:56;1.30;99.90
12682;DHT22;6405;59.208;18.216;2023-03-03T05:13:24;1.20;99.90
12682;DHT22;6405;59.208;18.216;2023-03-03T05:15:53;1.20;99.90
12682;DHT22;6405;59.208;18.216;2023-03-03T05:18:23;1.10;99.90
12682;DHT22;6405;59.208;18.216;2023-03-03T05:20:50;1.10;99.90
12682;DHT22;6405;59.208;18.216;2023-03-03T05:23:17;1.10;99.90
12682;DHT22;6405;59.208;18.216;2023-03-03T05:25:43;1.10;99.90
12682;DHT22;6405;59.208;18.216;2023-03-03T05:28:09;1.00;99.90
12682;DHT22;6405;59.208;18.216;2023-03-03T05:30:36;1.00;99.90
12682;DHT22;6405;59.208;18.216;2023-03-03T05:33:03;0.90;99.90
12682;DHT22;6405;59.208;18.216;2023-03-03T05:35:28;0.90;99.90
12682;DHT22;6405;59.208;18.216;2023-03-03T05:37:54;0.90;99.90
12682;DHT22;6405;59.208;18.216;2023-03-03T05:40:23;0.90;99.90
12682;DHT22;6405;59.208;18.216;2023-03-03T05:42:49;1.00;99.90
12682;DHT22;6405;59.208;18.216;2023-03-03T05:45:15;1.00;99.90
12682;DHT22;6405;59.208;18.216;2023-03-03T05:47:40;1.00;99.90
12682;DHT22;6405;59.208;18.216;2023-03-03T05:50:06;1.00;99.90
12682;DHT22;6405;59.208;18.216;2023-03-03T05:52:32;1.00;99.90
12682;DHT22;6405;59.208;18.216;2023-03-03T05:54:58;0.90;99.90
12682;DHT22;6405;59.208;18.216;2023-03-03T05:57:23;1.00;99.90
12682;DHT22;6405;59.208;18.216;2023-03-03T05:59:49;1.00;99.90
12682;DHT22;6405;59.208;18.216;2023-03-03T06:02:14;1.00;99.90
12682;DHT22;6405;59.208;18.216;2023-03-03T06:04:40;1.10;99.90
12682;DHT22;6405;59.208;18.216;2023-03-03T06:07:06;1.10;99.90
12682;DHT22;6405;59.208;18.216;2023-03-03T06:09:32;1.10;99.90
12682;DHT22;6405;59.208;18.216;2023-03-03T06:11:57;1.20;99.90
12682;DHT22;6405;59.208;18.216;2023-03-03T06:14:23;1.10;99.90
12682;DHT22;6405;59.208;18.216;2023-03-03T06:16:49;1.10;99.90
12682;DHT22;6405;59.208;18.216;2023-03-03T06:19:15;1.10;99.90
12682;DHT22;6405;59.208;18.216;2023-03-03T06:21:41;1.10;99.90
12682;DHT22;6405;59.208;18.216;2023-03-03T06:24:07;1.20;99.90
12682;DHT22;6405;59.208;18.216;2023-03-03T06:26:33;1.20;99.90
12682;DHT22;6405;59.208;18.216;2023-03-03T06:28:59;1.20;99.90
12682;DHT22;6405;59.208;18.216;2023-03-03T06:31:25;1.10;99.90
12682;DHT22;6405;59.208;18.216;2023-03-03T06:33:51;1.10;99.90
12682;DHT22;6405;59.208;18.216;2023-03-03T06:36:18;1.10;99.90
12682;DHT22;6405;59.208;18.216;2023-03-03T06:38:44;1.10;99.90
12682;DHT22;6405;59.208;18.216;2023-03-03T06:41:10;1.00;99.90
12682;DHT22;6405;59.208;18.216;2023-03-03T06:43:36;1.00;99.90
12682;DHT22;6405;59.208;18.216;2023-03-03T06:46:03;0.90;99.90
12682;DHT22;6405;59.208;18.216;2023-03-03T06:48:30;1.00;99.90
12682;DHT22;6405;59.208;18.216;2023-03-03T06:50:56;1.00;99.90
12682;DHT22;6405;59.208;18.216;2023-03-03T06:53:22;1.10;99.90
12682;DHT22;6405;59.208;18.216;2023-03-03T06:55:47;1.10;99.90
12682;DHT22;6405;59.208;18.216;2023-03-03T06:58:18;1.30;99.90
12682;DHT22;6405;59.208;18.216;2023-03-03T07:00:59;1.30;99.90
12682;DHT22;6405;59.208;18.216;2023-03-03T07:03:27;1.20;99.90
12682;DHT22;6405;59.208;18.216;2023-03-03T07:05:57;1.30;99.90
12682;DHT22;6405;59.208;18.216;2023-03-03T07:08:23;1.30;99.90
12682;DHT22;6405;59.208;18.216;2023-03-03T07:10:51;1.30;99.90
12682;DHT22;6405;59.208;18.216;2023-03-03T07:15:49;1.40;99.90
12682;DHT22;6405;59.208;18.216;2023-03-03T07:18:36;1.40;99.90
12682;DHT22;6405;59.208;18.216;2023-03-03T07:21:24;1.60;99.90
12682;DHT22;6405;59.208;18.216;2023-03-03T07:23:52;1.60;99.90
12682;DHT22;6405;59.208;18.216;2023-03-03T07:26:20;1.60;99.90
12682;DHT22;6405;59.208;18.216;2023-03-03T07:29:08;1.70;99.90
12682;DHT22;6405;59.208;18.216;2023-03-03T07:31:40;1.70;99.90
12682;DHT22;6405;59.208;18.216;2023-03-03T07:34:37;1.80;99.90
12682;DHT22;6405;59.208;18.216;2023-03-03T07:37:11;1.90;99.90
12682;DHT22;6405;59.208;18.216;2023-03-03T07:39:42;2.00;99.90
12682;DHT22;6405;59.208;18.216;2023-03-03T07:44:59;2.10;99.90
12682;DHT22;6405;59.208;18.216;2023-03-03T07:47:26;2.20;99.90
12682;DHT22;6405;59.208;18.216;2023-03-03T07:49:54;2.20;99.90
12682;DHT22;6405;59.208;18.216;2023-03-03T07:54:49;2.30;99.90
12682;DHT22;6405;59.208;18.216;2023-03-03T07:57:28;2.30;99.90
12682;DHT22;6405;59.208;18.216;2023-03-03T08:02:49;2.40;99.90
12682;DHT22;6405;59.208;18.216;2023-03-03T08:05:39;2.50;99.90
12682;DHT22;6405;59.208;18.216;2023-03-03T08:10:50;2.70;99.90
12682;DHT22;6405;59.208;18.216;2023-03-03T08:13:18;2.80;99.90
12682;DHT22;6405;59.208;18.216;2023-03-03T08:15:45;2.90;99.90
12682;DHT22;6405;59.208;18.216;2023-03-03T08:18:36;3.00;99.90
12682;DHT22;6405;59.208;18.216;2023-03-03T08:21:10;3.10;99.90
12682;DHT22;6405;59.208;18.216;2023-03-03T08:23:37;3.10;99.90
12682;DHT22;6405;59.208;18.216;2023-03-03T08:26:03;3.20;99.90
12682;DHT22;6405;59.208;18.216;2023-03-03T08:28:28;3.30;99.90
12682;DHT22;6405;59.208;18.216;2023-03-03T08:30:54;3.50;99.90
12682;DHT22;6405;59.208;18.216;2023-03-03T08:33:20;3.50;99.90
12682;DHT22;6405;59.208;18.216;2023-03-03T08:35:46;3.60;99.90
12682;DHT22;6405;59.208;18.216;2023-03-03T08:38:14;3.60;99.90
12682;DHT22;6405;59.208;18.216;2023-03-03T08:40:41;3.70;99.90
12682;DHT22;6405;59.208;18.216;2023-03-03T08:43:07;3.70;99.90
12682;DHT22;6405;59.208;18.216;2023-03-03T08:45:33;3.80;99.90
12682;DHT22;6405;59.208;18.216;2023-03-03T08:48:00;3.80;99.90
12682;DHT22;6405;59.208;18.216;2023-03-03T08:50:27;3.90;99.90
12682;DHT22;6405;59.208;18.216;2023-03-03T08:52:53;3.90;99.90
12682;DHT22;6405;59.208;18.216;2023-03-03T08:55:19;3.90;99.90
12682;DHT22;6405;59.208;18.216;2023-03-03T08:57:45;3.90;99.90
12682;DHT22;6405;59.208;18.216;2023-03-03T09:00:13;3.90;99.90
12682;DHT22;6405;59.208;18.216;2023-03-03T09:02:39;3.90;99.90
12682;DHT22;6405;59.208;18.216;2023-03-03T09:05:05;3.80;99.90
12682;DHT22;6405;59.208;18.216;2023-03-03T09:07:31;3.90;99.90
12682;DHT22;6405;59.208;18.216;2023-03-03T09:09:57;4.00;99.90
12682;DHT22;6405;59.208;18.216;2023-03-03T09:12:34;4.00;99.90
12682;DHT22;6405;59.208;18.216;2023-03-03T09:17:38;4.10;99.90
12682;DHT22;6405;59.208;18.216;2023-03-03T09:22:56;4.20;99.90
12682;DHT22;6405;59.208;18.216;2023-03-03T09:27:53;4.30;99.90
12682;DHT22;6405;59.208;18.216;2023-03-03T09:30:29;4.40;99.90
12682;DHT22;6405;59.208;18.216;2023-03-03T09:32:59;4.50;99.90
12682;DHT22;6405;59.208;18.216;2023-03-03T09:35:36;4.60;99.90
12682;DHT22;6405;59.208;18.216;2023-03-03T09:38:32;4.70;99.90
12682;DHT22;6405;59.208;18.216;2023-03-03T09:49:52;4.90;99.90
12682;DHT22;6405;59.208;18.216;2023-03-03T10:06:14;5.00;99.90
12682;DHT22;6405;59.208;18.216;2023-03-03T10:08:56;5.00;99.90
12682;DHT22;6405;59.208;18.216;2023-03-03T10:11:34;5.10;99.90
12682;DHT22;6405;59.208;18.216;2023-03-03T10:17:13;5.10;99.90
12682;DHT22;6405;59.208;18.216;2023-03-03T10:19:52;5.10;99.90
12682;DHT22;6405;59.208;18.216;2023-03-03T10:22:44;5.10;99.90
12682;DHT22;6405;59.208;18.216;2023-03-03T10:28:21;5.10;99.90
12682;DHT22;6405;59.208;18.216;2023-03-03T10:36:54;4.90;99.90
12682;DHT22;6405;59.208;18.216;2023-03-03T10:39:26;4.70;99.90
12682;DHT22;6405;59.208;18.216;2023-03-03T10:48:08;4.60;99.90
12682;DHT22;6405;59.208;18.216;2023-03-03T10:50:55;4.60;99.90
12682;DHT22;6405;59.208;18.216;2023-03-03T10:53:42;4.40;99.90
12682;DHT22;6405;59.208;18.216;2023-03-03T11:12:44;3.90;99.90
12682;DHT22;6405;59.208;18.216;2023-03-03T11:15:19;3.80;99.90
12682;DHT22;6405;59.208;18.216;2023-03-03T11:20:45;3.60;99.90
12682;DHT22;6405;59.208;18.216;2023-03-03T11:31:55;3.20;99.90
12682;DHT22;6405;59.208;18.216;2023-03-03T11:37:10;3.20;99.90
12682;DHT22;6405;59.208;18.216;2023-03-03T11:39:37;3.20;99.90
12682;DHT22;6405;59.208;18.216;2023-03-03T11:42:28;3.10;99.90
12682;DHT22;6405;59.208;18.216;2023-03-03T11:45:10;3.10;99.90
12682;DHT22;6405;59.208;18.216;2023-03-03T11:47:42;3.00;99.90
12682;DHT22;6405;59.208;18.216;2023-03-03T11:50:27;3.00;99.90
12682;DHT22;6405;59.208;18.216;2023-03-03T11:55:41;2.90;99.90
12682;DHT22;6405;59.208;18.216;2023-03-03T11:58:28;2.80;99.90
12682;DHT22;6405;59.208;18.216;2023-03-03T12:03:47;2.80;99.90
12682;DHT22;6405;59.208;18.216;2023-03-03T12:12:00;2.90;99.90
12682;DHT22;6405;59.208;18.216;2023-03-03T12:28:10;3.10;99.90
12682;DHT22;6405;59.208;18.216;2023-03-03T12:33:29;3.20;99.90
12682;DHT22;6405;59.208;18.216;2023-03-03T12:36:11;3.20;99.90
12682;DHT22;6405;59.208;18.216;2023-03-03T12:41:26;3.20;99.90
12682;DHT22;6405;59.208;18.216;2023-03-03T12:46:54;3.20;99.90
12682;DHT22;6405;59.208;18.216;2023-03-03T12:49:35;3.20;99.90
12682;DHT22;6405;59.208;18.216;2023-03-03T12:57:58;3.60;99.90
12682;DHT22;6405;59.208;18.216;2023-03-03T13:00:39;3.90;99.90
12682;DHT22;6405;59.208;18.216;2023-03-03T13:03:21;4.10;99.90
12682;DHT22;6405;59.208;18.216;2023-03-03T13:05:57;4.20;99.90
12682;DHT22;6405;59.208;18.216;2023-03-03T13:11:31;4.20;99.90
12682;DHT22;6405;59.208;18.216;2023-03-03T13:14:09;4.30;99.90
12682;DHT22;6405;59.208;18.216;2023-03-03T13:16:42;4.30;99.90
12682;DHT22;6405;59.208;18.216;2023-03-03T13:19:17;4.30;99.90
12682;DHT22;6405;59.208;18.216;2023-03-03T13:22:09;4.30;99.90
12682;DHT22;6405;59.208;18.216;2023-03-03T13:24:39;4.40;99.90
12682;DHT22;6405;59.208;18.216;2023-03-03T13:27:12;4.40;99.90
12682;DHT22;6405;59.208;18.216;2023-03-03T13:29:58;4.50;99.90
12682;DHT22;6405;59.208;18.216;2023-03-03T13:32:39;4.40;99.90
12682;DHT22;6405;59.208;18.216;2023-03-03T13:35:39;4.40;99.90
12682;DHT22;6405;59.208;18.216;2023-03-03T13:38:11;4.40;99.90
12682;DHT22;6405;59.208;18.216;2023-03-03T13:41:03;4.40;99.90
12682;DHT22;6405;59.208;18.216;2023-03-03T13:43:37;4.40;99.90
12682;DHT22;6405;59.208;18.216;2023-03-03T14:06:18;4.70;99.90
12682;DHT22;6405;59.208;18.216;2023-03-03T14:19:14;5.20;99.90
12682;DHT22;6405;59.208;18.216;2023-03-03T14:24:21;5.30;99.90
12682;DHT22;6405;59.208;18.216;2023-03-03T14:26:55;5.30;99.90
12682;DHT22;6405;59.208;18.216;2023-03-03T14:29:29;5.40;99.90
12682;DHT22;6405;59.208;18.216;2023-03-03T14:32:01;5.40;99.90
12682;DHT22;6405;59.208;18.216;2023-03-03T14:34:37;5.30;99.90
12682;DHT22;6405;59.208;18.216;2023-03-03T14:42:37;5.40;99.90
12682;DHT22;6405;59.208;18.216;2023-03-03T14:45:40;5.40;99.90
12682;DHT22;6405;59.208;18.216;2023-03-03T14:48:23;5.30;99.90
12682;DHT22;6405;59.208;18.216;2023-03-03T14:50:56;5.40;99.90
12682;DHT22;6405;59.208;18.216;2023-03-03T14:53:33;5.30;99.90
12682;DHT22;6405;59.208;18.216;2023-03-03T14:56:22;5.50;99.90
12682;DHT22;6405;59.208;18.216;2023-03-03T14:58:50;5.30;99.90
12682;DHT22;6405;59.208;18.216;2023-03-03T15:01:20;5.30;99.90
12682;DHT22;6405;59.208;18.216;2023-03-03T15:03:49;5.30;99.90
12682;DHT22;6405;59.208;18.216;2023-03-03T15:06:55;5.40;99.90
12682;DHT22;6405;59.208;18.216;2023-03-03T15:12:23;5.40;99.90
12682;DHT22;6405;59.208;18.216;2023-03-03T15:17:36;5.60;99.90
12682;DHT22;6405;59.208;18.216;2023-03-03T15:25:35;5.70;99.90
12682;DHT22;6405;59.208;18.216;2023-03-03T15:31:04;5.60;99.90
12682;DHT22;6405;59.208;18.216;2023-03-03T15:36:56;5.50;99.90
12682;DHT22;6405;59.208;18.216;2023-03-03T15:42:10;5.40;99.90
12682;DHT22;6405;59.208;18.216;2023-03-03T15:45:06;5.40;99.90
12682;DHT22;6405;59.208;18.216;2023-03-03T15:51:07;5.20;99.90
12682;DHT22;6405;59.208;18.216;2023-03-03T15:56:55;5.10;99.90
12682;DHT22;6405;59.208;18.216;2023-03-03T16:02:15;4.90;99.90
12682;DHT22;6405;59.208;18.216;2023-03-03T16:10:06;4.80;99.90
12682;DHT22;6405;59.208;18.216;2023-03-03T16:21:56;4.50;99.90
12682;DHT22;6405;59.208;18.216;2023-03-03T16:25:01;4.50;99.90
12682;DHT22;6405;59.208;18.216;2023-03-03T16:27:45;4.50;99.90
12682;DHT22;6405;59.208;18.216;2023-03-03T16:33:31;4.60;99.90
12682;DHT22;6405;59.208;18.216;2023-03-03T16:38:34;4.70;99.90
12682;DHT22;6405;59.208;18.216;2023-03-03T16:41:04;4.60;99.90
12682;DHT22;6405;59.208;18.216;2023-03-03T16:43:40;4.60;99.90
12682;DHT22;6405;59.208;18.216;2023-03-03T16:46:37;4.50;99.90
12682;DHT22;6405;59.208;18.216;2023-03-03T16:49:26;4.40;99.90
12682;DHT22;6405;59.208;18.216;2023-03-03T16:52:16;4.30;99.90
12682;DHT22;6405;59.208;18.216;2023-03-03T17:00:26;4.40;99.90
12682;DHT22;6405;59.208;18.216;2023-03-03T17:05:50;4.30;99.90
12682;DHT22;6405;59.208;18.216;2023-03-03T17:16:47;4.40;99.90
12682;DHT22;6405;59.208;18.216;2023-03-03T17:22:11;4.40;99.90
12682;DHT22;6405;59.208;18.216;2023-03-03T17:25:19;4.40;99.90
12682;DHT22;6405;59.208;18.216;2023-03-03T17:28:20;4.40;99.90
12682;DHT22;6405;59.208;18.216;2023-03-03T17:31:16;4.40;99.90
12682;DHT22;6405;59.208;18.216;2023-03-03T17:42:23;4.10;99.90
12682;DHT22;6405;59.208;18.216;2023-03-03T17:45:09;4.00;99.90
12682;DHT22;6405;59.208;18.216;2023-03-03T17:50:30;3.90;99.90
12682;DHT22;6405;59.208;18.216;2023-03-03T17:56:07;4.00;99.90
12682;DHT22;6405;59.208;18.216;2023-03-03T18:04:40;3.80;99.90
12682;DHT22;6405;59.208;18.216;2023-03-03T18:07:20;3.70;99.90
12682;DHT22;6405;59.208;18.216;2023-03-03T18:10:08;3.80;99.90
12682;DHT22;6405;59.208;18.216;2023-03-03T18:15:34;3.90;99.90
12682;DHT22;6405;59.208;18.216;2023-03-03T18:18:46;4.00;99.90
12682;DHT22;6405;59.208;18.216;2023-03-03T18:21:13;4.00;99.90
12682;DHT22;6405;59.208;18.216;2023-03-03T18:23:42;4.10;99.90
12682;DHT22;6405;59.208;18.216;2023-03-03T18:26:38;4.10;99.90
12682;DHT22;6405;59.208;18.216;2023-03-03T18:31:48;4.10;99.90
12682;DHT22;6405;59.208;18.216;2023-03-03T18:37:08;4.20;99.90
12682;DHT22;6405;59.208;18.216;2023-03-03T18:39:45;4.30;99.90
12682;DHT22;6405;59.208;18.216;2023-03-03T18:45:54;4.40;99.90
12682;DHT22;6405;59.208;18.216;2023-03-03T18:48:11;4.30;99.90
12682;DHT22;6405;59.208;18.216;2023-03-03T18:50:45;4.30;99.90
12682;DHT22;6405;59.208;18.216;2023-03-03T18:53:28;4.30;99.90
12682;DHT22;6405;59.208;18.216;2023-03-03T18:56:02;4.30;99.90
12682;DHT22;6405;59.208;18.216;2023-03-03T18:58:38;4.20;99.90
12682;DHT22;6405;59.208;18.216;2023-03-03T19:01:13;4.10;99.90
12682;DHT22;6405;59.208;18.216;2023-03-03T19:06:29;4.00;99.90
12682;DHT22;6405;59.208;18.216;2023-03-03T19:08:56;4.00;99.90
12682;DHT22;6405;59.208;18.216;2023-03-03T19:16:51;3.90;99.90
12682;DHT22;6405;59.208;18.216;2023-03-03T19:19:31;3.90;99.90
12682;DHT22;6405;59.208;18.216;2023-03-03T19:22:23;3.90;99.90
12682;DHT22;6405;59.208;18.216;2023-03-03T19:30:53;3.80;99.90
12682;DHT22;6405;59.208;18.216;2023-03-03T19:33:45;3.70;99.90
12682;DHT22;6405;59.208;18.216;2023-03-03T19:36:56;3.70;99.90
12682;DHT22;6405;59.208;18.216;2023-03-03T19:39:11;3.60;99.90
12682;DHT22;6405;59.208;18.216;2023-03-03T19:42:02;3.60;99.90
12682;DHT22;6405;59.208;18.216;2023-03-03T19:47:49;3.60;99.90
12682;DHT22;6405;59.208;18.216;2023-03-03T19:50:24;3.50;99.90
12682;DHT22;6405;59.208;18.216;2023-03-03T19:53:24;3.50;99.90
12682;DHT22;6405;59.208;18.216;2023-03-03T19:56:17;3.50;99.90
12682;DHT22;6405;59.208;18.216;2023-03-03T20:06:55;3.30;99.90
12682;DHT22;6405;59.208;18.216;2023-03-03T20:12:41;3.30;99.90
12682;DHT22;6405;59.208;18.216;2023-03-03T20:15:16;3.20;99.90
12682;DHT22;6405;59.208;18.216;2023-03-03T20:17:49;3.10;99.90
12682;DHT22;6405;59.208;18.216;2023-03-03T20:23:20;2.90;99.90
12682;DHT22;6405;59.208;18.216;2023-03-03T20:41:58;2.60;99.90
12682;DHT22;6405;59.208;18.216;2023-03-03T20:50:34;2.40;99.90
12682;DHT22;6405;59.208;18.216;2023-03-03T20:56:10;2.40;99.90
12682;DHT22;6405;59.208;18.216;2023-03-03T20:59:12;2.30;99.90
12682;DHT22;6405;59.208;18.216;2023-03-03T21:04:22;2.20;99.90
12682;DHT22;6405;59.208;18.216;2023-03-03T21:06:47;2.20;99.90
12682;DHT22;6405;59.208;18.216;2023-03-03T21:09:34;2.20;99.90
12682;DHT22;6405;59.208;18.216;2023-03-03T21:12:02;2.20;99.90
12682;DHT22;6405;59.208;18.216;2023-03-03T21:14:38;2.20;99.90
12682;DHT22;6405;59.208;18.216;2023-03-03T21:17:26;2.10;99.90
12682;DHT22;6405;59.208;18.216;2023-03-03T21:19:52;2.10;99.90
12682;DHT22;6405;59.208;18.216;2023-03-03T21:22:18;2.10;99.90
12682;DHT22;6405;59.208;18.216;2023-03-03T21:24:56;2.10;99.90
12682;DHT22;6405;59.208;18.216;2023-03-03T21:27:31;2.10;99.90
12682;DHT22;6405;59.208;18.216;2023-03-03T21:32:44;2.00;99.90
12682;DHT22;6405;59.208;18.216;2023-03-03T21:35:16;2.00;99.90
12682;DHT22;6405;59.208;18.216;2023-03-03T21:37:53;2.00;99.90
12682;DHT22;6405;59.208;18.216;2023-03-03T21:40:23;2.10;99.90
12682;DHT22;6405;59.208;18.216;2023-03-03T21:42:52;2.10;99.90
12682;DHT22;6405;59.208;18.216;2023-03-03T21:45:18;2.00;99.90
12682;DHT22;6405;59.208;18.216;2023-03-03T21:47:48;1.90;99.90
12682;DHT22;6405;59.208;18.216;2023-03-03T21:50:15;1.90;99.90
12682;DHT22;6405;59.208;18.216;2023-03-03T21:52:41;1.80;99.90
12682;DHT22;6405;59.208;18.216;2023-03-03T21:55:07;1.80;99.90
12682;DHT22;6405;59.208;18.216;2023-03-03T21:57:33;1.80;99.90
12682;DHT22;6405;59.208;18.216;2023-03-03T22:00:00;1.70;99.90
12682;DHT22;6405;59.208;18.216;2023-03-03T22:02:26;1.60;99.90
12682;DHT22;6405;59.208;18.216;2023-03-03T22:04:52;1.60;99.90
12682;DHT22;6405;59.208;18.216;2023-03-03T22:07:17;1.50;99.90
12682;DHT22;6405;59.208;18.216;2023-03-03T22:09:43;1.50;99.90
12682;DHT22;6405;59.208;18.216;2023-03-03T22:12:08;1.60;99.90